createdAt,value
2019-05-22T00:02:35.115Z,99796.12
2019-05-22T00:05:15.494Z,99792.30
2019-05-22T00:07:49.100Z,99796.61
2019-05-22T00:10:24.598Z,99800.69
2019-05-22T00:12:55.276Z,99805.90
2019-05-22T00:15:25.147Z,99812.70
2019-05-22T00:17:56.984Z,99812.44
2019-05-22T00:20:28.467Z,99813.16
2019-05-22T00:23:00.035Z,99819.16
2019-05-22T00:25:33.282Z,99807.27
2019-05-22T00:28:04.860Z,99818.14
2019-05-22T00:30:36.518Z,99819.73
2019-05-22T00:33:08.174Z,99820.28
2019-05-22T00:35:38.633Z,99814.06
2019-05-22T00:38:10.084Z,99817.88
2019-05-22T00:40:51.840Z,99811.57
2019-05-22T00:43:30.287Z,99806.84
2019-05-22T00:46:05.163Z,99805.90
2019-05-22T00:48:36.954Z,99809.27
2019-05-22T00:51:28.446Z,99809.56
2019-05-22T00:54:00.175Z,99804.13
2019-05-22T00:56:41.583Z,99809.17
2019-05-22T00:59:14.733Z,99804.86
2019-05-22T01:01:45.834Z,99816.92
2019-05-22T01:04:17.635Z,99813.02
2019-05-22T01:06:48.697Z,99815.10
2019-05-22T01:09:38.607Z,99823.48
2019-05-22T01:12:19.577Z,99821.09
2019-05-22T01:14:53.349Z,99817.56
2019-05-22T01:17:24.235Z,99823.45
2019-05-22T01:19:54.905Z,99828.95
2019-05-22T01:22:28.712Z,99827.27
2019-05-22T01:25:00.744Z,99829.35
2019-05-22T01:27:32.688Z,99825.77
2019-05-22T01:30:04.360Z,99830.16
2019-05-22T01:32:45.274Z,99823.59
2019-05-22T01:35:16.703Z,99828.93
2019-05-22T01:37:47.188Z,99821.72
2019-05-22T01:40:33.141Z,99816.11
2019-05-22T01:43:04.454Z,99824.03
2019-05-22T01:45:34.144Z,99823.93
2019-05-22T01:48:08.907Z,99826.00
2019-05-22T01:50:49.053Z,99825.40
2019-05-22T01:53:24.036Z,99825.25
2019-05-22T01:55:58.651Z,99830.68
2019-05-22T01:58:31.213Z,99831.31
2019-05-22T02:01:03.160Z,99844.08
2019-05-22T02:03:34.288Z,99838.33
2019-05-22T02:06:06.266Z,99837.70
2019-05-22T02:08:41.673Z,99839.56
2019-05-22T02:11:16.363Z,99839.30
2019-05-22T02:13:50.550Z,99836.97
2019-05-22T02:16:21.558Z,99844.89
2019-05-22T02:18:52.578Z,99844.66
2019-05-22T02:21:23.896Z,99850.71
2019-05-22T02:23:56.280Z,99849.09
2019-05-22T02:26:26.354Z,99848.86
2019-05-22T02:28:57.309Z,99850.45
2019-05-22T02:31:29.374Z,99852.30
2019-05-22T02:34:04.953Z,99852.20
2019-05-22T02:36:37.298Z,99850.92
2019-05-22T02:39:15.702Z,99857.63
2019-05-22T02:41:56.778Z,99860.73
2019-05-22T02:44:28.848Z,99859.23
2019-05-22T02:47:18.290Z,99853.84
2019-05-22T02:49:36.051Z,99858.53
2019-05-22T02:52:07.660Z,99865.32
2019-05-22T02:54:38.701Z,99868.84
2019-05-22T02:57:10.607Z,99866.56
2019-05-22T02:59:42.333Z,99875.48
2019-05-22T03:02:14.436Z,99880.06
2019-05-22T03:05:09.653Z,99885.06
2019-05-22T03:07:42.013Z,99887.04
2019-05-22T03:10:13.586Z,99870.98
2019-05-22T03:12:45.621Z,99872.49
2019-05-22T03:15:19.247Z,99878.27
2019-05-22T03:17:53.493Z,99877.88
2019-05-22T03:20:26.676Z,99885.81
2019-05-22T03:23:01.259Z,99886.94
2019-05-22T03:25:33.540Z,99893.45
2019-05-22T03:28:05.865Z,99894.94
2019-05-22T03:30:40.080Z,99892.59
2019-05-22T03:33:10.355Z,99891.23
2019-05-22T03:35:47.844Z,99904.80
2019-05-22T03:38:20.533Z,99899.92
2019-05-22T03:40:52.404Z,99904.16
2019-05-22T03:43:28.344Z,99908.09
2019-05-22T03:46:02.911Z,99909.44
2019-05-22T03:48:38.055Z,99913.45
2019-05-22T03:51:15.098Z,99916.73
2019-05-22T03:53:46.330Z,99923.20
2019-05-22T03:56:17.638Z,99931.65
2019-05-22T03:58:47.840Z,99933.14
2019-05-22T04:01:19.635Z,99929.31
2019-05-22T04:03:51.722Z,99926.60
2019-05-22T04:06:23.590Z,99934.13
2019-05-22T04:08:56.723Z,99936.47
2019-05-22T04:11:34.254Z,99934.30
2019-05-22T04:14:04.930Z,99931.05
2019-05-22T04:16:35.632Z,99938.88
2019-05-22T04:19:06.711Z,99940.37
2019-05-22T04:21:36.488Z,99947.97
2019-05-22T04:24:06.460Z,99946.61
2019-05-22T04:26:36.614Z,99955.50
2019-05-22T04:29:08.350Z,99946.00
2019-05-22T04:31:54.226Z,99949.56
2019-05-22T04:34:24.398Z,99946.64
2019-05-22T04:36:54.076Z,99947.22
2019-05-22T04:39:27.421Z,99951.29
2019-05-22T04:41:59.006Z,99960.95
2019-05-22T04:44:29.400Z,99955.19
2019-05-22T04:47:00.535Z,99957.33
2019-05-22T04:49:30.144Z,99967.34
2019-05-22T04:51:59.823Z,99961.67
2019-05-22T04:54:29.811Z,99965.30
2019-05-22T04:57:00.241Z,99970.66
2019-05-22T04:59:31.229Z,99972.70
2019-05-22T05:02:01.738Z,99980.46
2019-05-22T05:04:31.873Z,99975.85
2019-05-22T05:07:02.949Z,99982.27
2019-05-22T05:09:33.182Z,99979.17
2019-05-22T05:12:03.102Z,99984.66
2019-05-22T05:14:32.983Z,99979.48
2019-05-22T05:17:02.989Z,99980.29
2019-05-22T05:19:33.068Z,99979.17
2019-05-22T05:22:02.671Z,99980.77
2019-05-22T05:24:32.647Z,99981.48
2019-05-22T05:27:03.141Z,99984.97
2019-05-22T05:29:34.600Z,99993.42
2019-05-22T05:32:06.122Z,99989.62
2019-05-22T05:34:40.708Z,99987.83
2019-05-22T05:37:12.767Z,99986.13
2019-05-22T05:40:04.560Z,99986.30
2019-05-22T05:42:34.515Z,99989.21
2019-05-22T05:45:06.268Z,99991.34
2019-05-22T05:47:38.196Z,99994.27
2019-05-22T05:50:12.975Z,99998.70
2019-05-22T05:52:42.915Z,100009.22
2019-05-22T05:55:13.338Z,100001.92
2019-05-22T05:57:50.182Z,100005.72
2019-05-22T06:00:28.447Z,100002.70
2019-05-22T06:03:35.944Z,100012.44
2019-05-22T06:06:30.201Z,100017.98
2019-05-22T06:09:02.220Z,100022.53
2019-05-22T06:11:46.527Z,100024.50
2019-05-22T06:14:28.319Z,100030.06
2019-05-22T06:17:23.864Z,100029.34
2019-05-22T06:19:59.747Z,100029.34
2019-05-22T06:22:29.638Z,100029.34
2019-05-22T06:25:02.241Z,100035.02
2019-05-22T06:27:35.849Z,100032.64
2019-05-22T06:30:08.312Z,100036.48
2019-05-22T06:33:07.302Z,100038.64
2019-05-22T06:35:39.347Z,100036.78
2019-05-22T06:38:48.905Z,100037.94
2019-05-22T06:41:20.281Z,100047.33
2019-05-22T06:44:29.191Z,100043.02
2019-05-22T06:47:00.038Z,100053.27
2019-05-22T06:49:38.937Z,100058.94
2019-05-22T06:52:09.781Z,100050.56
2019-05-22T06:54:40.262Z,100060.67
2019-05-22T06:57:16.057Z,100062.98
2019-05-22T06:59:47.686Z,100068.91
2019-05-22T07:02:17.937Z,100062.45
2019-05-22T07:04:48.662Z,100075.11
2019-05-22T07:07:20.057Z,100074.45
2019-05-22T07:09:50.804Z,100066.95
2019-05-22T07:12:20.809Z,100072.11
2019-05-22T07:15:11.802Z,100080.59
2019-05-22T07:17:42.055Z,100082.45
2019-05-22T07:20:13.281Z,100078.37
2019-05-22T07:22:44.352Z,100083.94
2019-05-22T07:25:15.697Z,100086.53
2019-05-22T07:27:46.813Z,100086.66
2019-05-22T07:30:17.171Z,100092.51
2019-05-22T07:32:47.518Z,100096.02
2019-05-22T07:35:18.297Z,100092.82
2019-05-22T07:37:49.648Z,100099.66
2019-05-22T07:40:20.566Z,100101.50
2019-05-22T07:42:52.531Z,100105.98
2019-05-22T07:45:27.134Z,100108.20
2019-05-22T07:48:00.588Z,100104.20
2019-05-22T07:50:32.685Z,100103.39
2019-05-22T07:53:04.265Z,100110.92
2019-05-22T07:55:35.368Z,100111.97
2019-05-22T07:58:12.632Z,100111.11
2019-05-22T08:00:54.625Z,100112.86
2019-05-22T08:03:25.637Z,100109.77
2019-05-22T08:05:58.643Z,100110.92
2019-05-22T08:08:31.774Z,100114.69
2019-05-22T08:11:01.983Z,100117.30
2019-05-22T08:13:33.407Z,100123.62
2019-05-22T08:16:04.479Z,100128.59
2019-05-22T08:18:36.139Z,100130.65
2019-05-22T08:21:07.070Z,100128.89
2019-05-22T08:23:37.766Z,100118.89
2019-05-22T08:26:10.956Z,100132.09
2019-05-22T08:28:41.694Z,100126.16
2019-05-22T08:31:13.305Z,100130.88
2019-05-22T08:33:43.079Z,100132.60
2019-05-22T08:36:12.945Z,100128.52
2019-05-22T08:38:45.039Z,100134.50
2019-05-22T08:41:19.081Z,100136.06
2019-05-22T08:44:13.895Z,100142.34
2019-05-22T08:46:20.965Z,100140.08
2019-05-22T08:48:51.945Z,100141.44
2019-05-22T08:51:21.854Z,100143.98
2019-05-22T08:53:54.028Z,100151.01
2019-05-22T08:56:25.462Z,100145.78
2019-05-22T08:58:55.285Z,100162.83
2019-05-22T09:01:25.211Z,100155.72
2019-05-22T09:03:55.017Z,100162.08
2019-05-22T09:06:24.840Z,100159.09
2019-05-22T09:08:54.539Z,100161.00
2019-05-22T09:11:24.164Z,100159.77
2019-05-22T09:13:53.969Z,100164.12
2019-05-22T09:16:24.533Z,100160.31
2019-05-22T09:18:54.360Z,100179.54
2019-05-22T09:21:25.178Z,100165.13
2019-05-22T09:23:55.994Z,100171.86
2019-05-22T09:26:26.221Z,100172.17
2019-05-22T09:28:55.871Z,100172.28
2019-05-22T09:31:25.730Z,100176.01
2019-05-22T09:33:55.629Z,100178.51
2019-05-22T09:36:25.668Z,100177.88
2019-05-22T09:38:55.623Z,100182.35
2019-05-22T09:41:25.600Z,100187.83
2019-05-22T09:43:55.394Z,100193.06
2019-05-22T09:46:25.847Z,100187.75
2019-05-22T09:48:56.855Z,100188.63
2019-05-22T09:51:26.771Z,100193.48
2019-05-22T09:53:56.937Z,100189.84
2019-05-22T09:56:28.871Z,100199.72
2019-05-22T09:58:58.820Z,100200.72
2019-05-22T10:01:28.605Z,100205.77
2019-05-22T10:03:59.981Z,100199.38
2019-05-22T10:06:29.880Z,100204.64
2019-05-22T10:08:59.473Z,100203.27
2019-05-22T10:11:30.625Z,100208.89
2019-05-22T10:14:00.644Z,100211.23
2019-05-22T10:16:30.978Z,100212.39
2019-05-22T10:19:01.110Z,100227.42
2019-05-22T10:21:31.556Z,100223.01
2019-05-22T10:24:01.238Z,100230.08
2019-05-22T10:26:31.479Z,100229.86
2019-05-22T10:29:01.306Z,100225.19
2019-05-22T10:31:31.348Z,100231.44
2019-05-22T10:34:01.589Z,100237.00
2019-05-22T10:36:31.583Z,100242.21
2019-05-22T10:39:01.634Z,100228.57
2019-05-22T10:41:31.423Z,100238.25
2019-05-22T10:44:02.418Z,100228.95
2019-05-22T10:46:32.639Z,100240.24
2019-05-22T10:49:02.541Z,100246.73
2019-05-22T10:51:32.200Z,100246.83
2019-05-22T10:54:01.981Z,100240.27
2019-05-22T10:56:31.973Z,100245.34
2019-05-22T10:59:01.904Z,100246.65
2019-05-22T11:01:32.064Z,100247.82
2019-05-22T11:04:02.731Z,100258.08
2019-05-22T11:06:32.787Z,100257.11
2019-05-22T11:09:03.935Z,100250.20
2019-05-22T11:11:41.269Z,100248.72
2019-05-22T11:14:11.439Z,100243.44
2019-05-22T11:16:44.116Z,100252.62
2019-05-22T11:19:13.953Z,100246.64
2019-05-22T11:21:44.396Z,100249.66
2019-05-22T11:24:15.115Z,100257.86
2019-05-22T11:26:45.966Z,100249.05
2019-05-22T11:29:16.200Z,100258.88
2019-05-22T11:31:46.635Z,100250.48
2019-05-22T11:34:16.497Z,100257.78
2019-05-22T11:36:46.417Z,100258.66
2019-05-22T11:39:17.778Z,100258.38
2019-05-22T11:41:47.782Z,100253.44
2019-05-22T11:44:17.813Z,100267.92
2019-05-22T11:46:48.396Z,100268.36
2019-05-22T11:49:18.399Z,100265.09
2019-05-22T11:51:51.335Z,100266.50
2019-05-22T11:54:21.858Z,100268.54
2019-05-22T11:56:51.714Z,100272.39
2019-05-22T11:59:22.903Z,100272.98
2019-05-22T12:01:52.901Z,100271.27
2019-05-22T12:04:24.220Z,100267.30
2019-05-22T12:06:54.794Z,100279.53
2019-05-22T12:09:27.215Z,100280.43
2019-05-22T12:11:57.990Z,100278.94
2019-05-22T12:14:28.538Z,100277.06
2019-05-22T12:16:59.136Z,100278.77
2019-05-22T12:19:29.693Z,100282.27
2019-05-22T12:21:59.504Z,100287.52
2019-05-22T12:24:36.578Z,100292.25
2019-05-22T12:27:01.875Z,100284.72
2019-05-22T12:29:32.033Z,100297.10
2019-05-22T12:32:02.152Z,100299.36
2019-05-22T12:34:31.992Z,100296.52
2019-05-22T12:37:02.115Z,100304.64
2019-05-22T12:39:32.096Z,100309.53
2019-05-22T12:42:02.846Z,100300.02
2019-05-22T12:44:33.578Z,100303.86
2019-05-22T12:47:05.312Z,100302.26
2019-05-22T12:49:42.118Z,100308.56
2019-05-22T12:52:12.919Z,100317.20
2019-05-22T12:54:48.323Z,100310.41
2019-05-22T12:57:17.133Z,100312.52
2019-05-22T12:59:47.746Z,100321.03
2019-05-22T13:02:19.519Z,100311.51
2019-05-22T13:04:50.438Z,100319.95
2019-05-22T13:07:20.411Z,100320.98
2019-05-22T13:09:50.286Z,100329.19
2019-05-22T13:12:23.598Z,100321.75
2019-05-22T13:15:08.350Z,100330.28
2019-05-22T13:17:25.920Z,100331.77
2019-05-22T13:19:57.258Z,100334.19
2019-05-22T13:22:27.585Z,100332.22
2019-05-22T13:24:58.081Z,100334.28
2019-05-22T13:27:29.398Z,100337.63
2019-05-22T13:30:02.177Z,100332.34
2019-05-22T13:32:33.103Z,100332.80
2019-05-22T13:35:06.027Z,100345.17
2019-05-22T13:37:36.727Z,100340.84
2019-05-22T13:40:26.040Z,100341.83
2019-05-22T13:42:41.237Z,100343.44
2019-05-22T13:45:28.359Z,100360.17
2019-05-22T13:47:46.004Z,100359.26
2019-05-22T13:50:19.058Z,100365.81
2019-05-22T13:52:50.181Z,100359.72
2019-05-22T13:55:21.570Z,100362.37
2019-05-22T13:57:52.540Z,100368.61
2019-05-22T14:00:25.264Z,100363.41
2019-05-22T14:02:55.709Z,100367.55
2019-05-22T14:05:27.648Z,100373.02
2019-05-22T14:07:57.691Z,100377.23
2019-05-22T14:10:28.932Z,100383.47
2019-05-22T14:12:59.133Z,100376.47
2019-05-22T14:15:48.283Z,100379.53
2019-05-22T14:18:02.916Z,100386.64
2019-05-22T14:20:32.919Z,100394.72
2019-05-22T14:23:03.061Z,100377.73
2019-05-22T14:25:34.233Z,100371.63
2019-05-22T14:28:05.665Z,100387.83
2019-05-22T14:30:35.992Z,100384.77
2019-05-22T14:33:06.301Z,100373.16
2019-05-22T14:35:48.414Z,100358.69
2019-05-22T14:38:27.539Z,100361.67
2019-05-22T14:40:58.311Z,100364.80
2019-05-22T14:43:29.328Z,100364.36
2019-05-22T14:45:59.661Z,100368.44
2019-05-22T14:48:30.087Z,100374.29
2019-05-22T14:51:00.988Z,100377.89
2019-05-22T14:53:36.648Z,100383.11
2019-05-22T14:56:12.642Z,100374.75
2019-05-22T14:58:44.563Z,100374.66
2019-05-22T15:01:14.710Z,100373.86
2019-05-22T15:03:45.175Z,100380.63
2019-05-22T15:06:15.898Z,100387.36
2019-05-22T15:08:45.521Z,100402.82
2019-05-22T15:11:17.508Z,100387.33
2019-05-22T15:13:47.816Z,100380.59
2019-05-22T15:16:18.187Z,100378.74
2019-05-22T15:18:47.967Z,100393.51
2019-05-22T15:21:19.262Z,100390.96
2019-05-22T15:23:51.174Z,100388.34
2019-05-22T15:26:21.059Z,100389.95
2019-05-22T15:28:51.308Z,100389.11
2019-05-22T15:31:21.093Z,100388.06
2019-05-22T15:33:51.452Z,100387.62
2019-05-22T15:36:24.667Z,100396.04
2019-05-22T15:38:56.741Z,100400.94
2019-05-22T15:41:29.301Z,100392.75
2019-05-22T15:44:00.533Z,100390.25
2019-05-22T15:46:32.979Z,100392.75
2019-05-22T15:49:07.360Z,100389.76
2019-05-22T15:51:39.047Z,100390.70
2019-05-22T15:54:13.700Z,100392.13
2019-05-22T15:56:44.235Z,100390.50
2019-05-22T15:59:15.089Z,100395.39
2019-05-22T16:01:47.264Z,100404.13
2019-05-22T16:04:18.369Z,100401.92
2019-05-22T16:06:49.500Z,100404.30
2019-05-22T16:09:20.929Z,100407.42
2019-05-22T16:11:54.858Z,100404.22
2019-05-22T16:14:27.710Z,100407.52
2019-05-22T16:16:59.451Z,100400.47
2019-05-22T16:19:31.869Z,100407.27
2019-05-22T16:22:06.699Z,100416.10
2019-05-22T16:24:40.292Z,100416.32
2019-05-22T16:27:12.777Z,100420.17
2019-05-22T16:29:43.919Z,100413.36
2019-05-22T16:32:16.257Z,100420.78
2019-05-22T16:34:46.567Z,100417.45
2019-05-22T16:37:17.591Z,100406.84
2019-05-22T16:39:50.266Z,100405.45
2019-05-22T16:42:20.700Z,100411.41
2019-05-22T16:44:50.374Z,100410.91
2019-05-22T16:47:22.873Z,100412.70
2019-05-22T16:49:53.902Z,100417.09
2019-05-22T16:52:28.522Z,100413.89
2019-05-22T16:54:58.914Z,100425.54
2019-05-22T16:57:32.067Z,100420.55
2019-05-22T17:00:02.492Z,100423.81
2019-05-22T17:02:37.750Z,100426.75
2019-05-22T17:05:11.130Z,100431.27
2019-05-22T17:07:44.006Z,100425.78
2019-05-22T17:10:16.491Z,100425.70
2019-05-22T17:12:48.955Z,100425.69
2019-05-22T17:15:21.351Z,100423.97
2019-05-22T17:17:51.214Z,100422.12
2019-05-22T17:20:23.497Z,100425.09
2019-05-22T17:22:53.720Z,100425.84
2019-05-22T17:25:23.916Z,100433.77
2019-05-22T17:27:53.503Z,100426.21
2019-05-22T17:30:25.743Z,100421.25
2019-05-22T17:32:56.728Z,100429.41
2019-05-22T17:35:26.824Z,100426.81
2019-05-22T17:37:58.401Z,100432.77
2019-05-22T17:40:28.316Z,100427.92
2019-05-22T17:42:59.284Z,100431.06
2019-05-22T17:45:30.959Z,100435.98
2019-05-22T17:48:02.510Z,100429.09
2019-05-22T17:50:35.886Z,100434.91
2019-05-22T17:53:07.009Z,100437.17
2019-05-22T17:55:38.441Z,100439.42
2019-05-22T17:58:08.870Z,100435.65
2019-05-22T18:00:40.180Z,100438.94
2019-05-22T18:03:10.226Z,100448.34
2019-05-22T18:05:41.175Z,100437.91
2019-05-22T18:08:12.261Z,100448.59
2019-05-22T18:10:44.349Z,100446.47
2019-05-22T18:13:15.207Z,100447.61
2019-05-22T18:15:46.517Z,100452.33
2019-05-22T18:18:17.625Z,100457.83
2019-05-22T18:20:47.934Z,100451.45
2019-05-22T18:23:17.765Z,100458.55
2019-05-22T18:25:47.465Z,100453.29
2019-05-22T18:28:17.210Z,100458.81
2019-05-22T18:30:47.139Z,100464.83
2019-05-22T18:33:17.434Z,100463.38
2019-05-22T18:35:47.535Z,100463.20
2019-05-22T18:38:17.160Z,100473.03
2019-05-22T18:40:47.234Z,100469.05
2019-05-22T18:43:18.973Z,100477.01
2019-05-22T18:45:48.827Z,100477.84
2019-05-22T18:48:20.208Z,100470.05
2019-05-22T18:50:50.574Z,100484.82
2019-05-22T18:53:20.462Z,100487.09
2019-05-22T18:55:50.102Z,100494.48
2019-05-22T18:58:19.770Z,100493.96
2019-05-22T19:00:49.509Z,100494.63
2019-05-22T19:03:19.113Z,100498.94
2019-05-22T19:05:49.032Z,100500.92
2019-05-22T19:08:19.004Z,100505.36
2019-05-22T19:10:49.051Z,100505.48
2019-05-22T19:13:18.884Z,100505.88
2019-05-22T19:15:49.459Z,100509.41
2019-05-22T19:18:19.121Z,100503.31
2019-05-22T19:20:48.732Z,100507.48
2019-05-22T19:23:18.599Z,100508.11
2019-05-22T19:25:48.262Z,100517.38
2019-05-22T19:28:18.086Z,100510.66
2019-05-22T19:30:47.712Z,100520.73
2019-05-22T19:33:18.620Z,100519.69
2019-05-22T19:35:48.744Z,100527.28
2019-05-22T19:38:18.507Z,100523.22
2019-05-22T19:40:48.575Z,100533.78
2019-05-22T19:43:18.279Z,100528.96
2019-05-22T19:45:48.993Z,100532.51
2019-05-22T19:48:19.295Z,100530.08
2019-05-22T19:50:50.598Z,100532.25
2019-05-22T19:53:22.457Z,100525.18
2019-05-22T19:55:59.276Z,100528.67
2019-05-22T19:58:29.621Z,100534.02
2019-05-22T20:00:59.990Z,100535.06
2019-05-22T20:03:30.267Z,100527.47
2019-05-22T20:05:59.947Z,100526.13
2019-05-22T20:08:29.656Z,100530.44
2019-05-22T20:10:59.247Z,100531.77
2019-05-22T20:13:29.081Z,100527.67
2019-05-22T20:15:58.756Z,100534.38
2019-05-22T20:18:28.850Z,100535.77
2019-05-22T20:20:58.601Z,100530.88
2019-05-22T20:23:36.029Z,100531.98
2019-05-22T20:26:01.170Z,100528.20
2019-05-22T20:28:31.827Z,100532.74
2019-05-22T20:31:01.428Z,100527.33
2019-05-22T20:33:31.116Z,100528.14
2019-05-22T20:36:01.183Z,100528.20
2019-05-22T20:38:31.265Z,100526.59
2019-05-22T20:41:01.312Z,100532.58
2019-05-22T20:43:31.896Z,100525.50
2019-05-22T20:46:02.325Z,100528.55
2019-05-22T20:48:33.207Z,100530.44
2019-05-22T20:51:04.442Z,100521.21
2019-05-22T20:53:52.332Z,100529.56
2019-05-22T20:56:10.440Z,100520.39
2019-05-22T20:58:40.965Z,100520.42
2019-05-22T21:01:12.715Z,100516.95
2019-05-22T21:03:44.020Z,100521.05
2019-05-22T21:06:16.499Z,100526.23
2019-05-22T21:08:47.430Z,100524.62
2019-05-22T21:11:20.704Z,100527.94
2019-05-22T21:13:50.500Z,100529.31
2019-05-22T21:16:23.546Z,100528.52
2019-05-22T21:18:55.000Z,100534.80
2019-05-22T21:21:26.024Z,100536.70
2019-05-22T21:24:09.351Z,100531.85
2019-05-22T21:26:27.461Z,100539.19
2019-05-22T21:28:57.790Z,100547.38
2019-05-22T21:31:29.090Z,100553.31
2019-05-22T21:33:58.898Z,100552.50
2019-05-22T21:36:29.857Z,100557.08
2019-05-22T21:39:00.511Z,100556.49
2019-05-22T21:41:30.483Z,100560.26
2019-05-22T21:44:00.613Z,100554.59
2019-05-22T21:46:30.554Z,100552.38
2019-05-22T21:49:00.339Z,100556.46
2019-05-22T21:51:30.569Z,100561.59
2019-05-22T21:54:00.377Z,100563.74
2019-05-22T21:56:31.330Z,100574.82
2019-05-22T21:59:01.273Z,100570.51
2019-05-22T22:01:33.035Z,100566.96
2019-05-22T22:04:04.700Z,100571.27
2019-05-22T22:06:34.769Z,100576.73
2019-05-22T22:09:07.715Z,100572.92
2019-05-22T22:11:38.606Z,100575.13
2019-05-22T22:14:09.022Z,100576.19
2019-05-22T22:16:40.757Z,100578.12
2019-05-22T22:19:11.652Z,100575.17
2019-05-22T22:21:41.642Z,100578.12
2019-05-22T22:24:11.847Z,100575.75
2019-05-22T22:26:42.119Z,100581.44
2019-05-22T22:29:12.633Z,100578.48
2019-05-22T22:31:44.041Z,100576.85
2019-05-22T22:34:18.719Z,100584.73
2019-05-22T22:36:49.445Z,100584.77
2019-05-22T22:39:21.622Z,100578.53
2019-05-22T22:41:53.595Z,100582.06
2019-05-22T22:44:23.253Z,100578.01
2019-05-22T22:46:57.723Z,100578.05
2019-05-22T22:49:28.194Z,100577.22
2019-05-22T22:51:59.118Z,100574.54
2019-05-22T22:54:30.732Z,100575.64
2019-05-22T22:57:00.435Z,100577.00
2019-05-22T22:59:31.080Z,100585.13
2019-05-22T23:02:03.961Z,100581.91
2019-05-22T23:04:35.187Z,100584.58
2019-05-22T23:07:06.018Z,100587.29
2019-05-22T23:09:39.091Z,100585.95
2019-05-22T23:12:09.957Z,100587.59
2019-05-22T23:14:44.712Z,100585.70
2019-05-22T23:17:14.566Z,100592.20
2019-05-22T23:19:43.155Z,100596.52
2019-05-22T23:22:12.769Z,100602.98
2019-05-22T23:24:43.660Z,100602.16
2019-05-22T23:27:13.648Z,100604.30
2019-05-22T23:29:44.874Z,100602.11
2019-05-22T23:32:15.642Z,100602.64
2019-05-22T23:34:47.345Z,100600.17
2019-05-22T23:37:20.353Z,100602.31
2019-05-22T23:39:53.098Z,100604.72
2019-05-22T23:42:29.073Z,100608.47
2019-05-22T23:45:02.803Z,100610.87
2019-05-22T23:47:32.774Z,100613.53
2019-05-22T23:50:03.810Z,100608.10
2019-05-22T23:52:33.885Z,100608.09
2019-05-22T23:55:04.734Z,100600.53
2019-05-22T23:57:35.243Z,100607.53
